Dhaka, Bangladesh
Current Conditions -  °F | °C
As of 3:50 PM on Friday 24 Oct 2014 (Local Time) from VGHS Reporting Station
Haze Haze  
Wind Chill: 88°   Ceiling: Unl
Heat Index: 89°   Visibility: 3mi
Dew Point: 64°   Wind: 6mph
Humidity: 46%   Direction: 60°ENE
Pressure: 29.8"   Gusts: NA
Location:  23.7°N, 90.39°E
Report Text: VGHS 240950Z 06005KT 5000 HZ SCT025 31/18 Q1009 NOSIG
Loading
Personal Weather Stations






























Interactive Weather Map
Tropical Storm Tracking
New forecast layout! Learn more

10-Day Weather Forecast

Advertisements
Track Severe Weather on mobile